Time;durP1;ratioP1;P1;durP2;ratioP2;P2;SDS_P1;SDS_P2;PMS_P1;PMS_P2;Temp;Humidity;BMP_temperature;BMP_pressure;BME280_temperature;BME280_humidity;BME280_pressure;Samples;Min_cycle;Max_cycle;Signal;HPM_P1;HPM_P2
2021/07/21 00:01:23;;;;;;;10.98;7.30;;;21.00;99.90;;;20.93;95.37;101539.84;4168166;28;20030;-71
2021/07/21 00:03:24;;;;;;;10.80;7.13;;;20.90;99.90;;;20.93;94.93;101533.66;4166880;28;20025;-71
2021/07/21 00:05:26;;;;;;;7.90;6.68;;;20.90;99.90;;;20.94;95.01;101540.66;4183351;28;20036;-71
2021/07/21 00:07:27;;;;;;;8.57;6.70;;;20.90;99.90;;;20.89;95.02;101538.59;4150152;28;20505;-71
2021/07/21 00:09:28;;;;;;;9.75;7.10;;;20.90;99.90;;;20.89;94.91;101532.41;4150481;28;20092;-71
2021/07/21 00:13:48;;;;;;;8.57;6.40;;;20.90;99.90;;;20.85;94.91;101545.38;4168350;28;20044;-71
2021/07/21 00:18:04;;;;;;;8.63;6.60;;;20.80;99.90;;;20.75;95.18;101549.50;4169788;28;20396;-71
2021/07/21 00:20:09;;;;;;;12.43;7.47;;;20.80;99.90;;;20.86;93.84;101544.38;4169822;28;20033;-71
2021/07/21 00:22:12;;;;;;;6.32;5.70;;;20.70;99.90;;;20.77;94.54;101552.81;4170353;28;20057;-71
2021/07/21 00:24:13;;;;;;;8.20;6.65;;;20.70;99.90;;;20.72;93.94;101553.41;4170039;28;20036;-71
2021/07/21 00:26:15;;;;;;;10.23;7.15;;;20.70;99.90;;;20.71;94.68;101554.44;4170955;28;20033;-71
2021/07/21 00:28:17;;;;;;;11.63;7.25;;;20.70;99.90;;;20.67;94.63;101555.06;4170755;28;20033;-71
2021/07/21 00:30:19;;;;;;;7.90;7.05;;;20.70;99.90;;;20.61;94.87;101547.81;4170708;28;20026;-71
2021/07/21 00:32:20;;;;;;;10.20;6.47;;;20.60;99.90;;;20.55;94.74;101556.66;4170845;28;20033;-71
2021/07/21 00:34:21;;;;;;;8.82;6.88;;;20.60;99.90;;;20.59;94.79;101558.72;4169457;28;20108;-71
2021/07/21 00:36:23;;;;;;;7.47;6.70;;;20.50;99.90;;;20.47;94.97;101554.16;4170453;28;20079;-71
2021/07/21 00:38:24;;;;;;;8.05;6.82;;;20.50;99.90;;;20.46;94.94;101549.84;4169430;28;20029;-71
2021/07/21 00:40:25;;;;;;;8.18;6.43;;;20.50;99.90;;;20.49;94.44;101560.97;4169616;28;20033;-71
2021/07/21 00:42:26;;;;;;;8.73;6.32;;;20.50;99.90;;;20.41;94.66;101550.44;4185889;28;20179;-71
2021/07/21 00:44:27;;;;;;;9.23;7.10;;;20.40;99.90;;;20.41;94.81;101548.56;4170594;28;20025;-71
2021/07/21 00:46:28;;;;;;;9.93;6.80;;;20.40;99.90;;;20.41;95.15;101555.78;4170471;28;20049;-71
2021/07/21 00:48:29;;;;;;;8.70;6.05;;;20.40;99.90;;;20.37;95.57;101552.66;4170674;28;20025;-71
2021/07/21 00:50:30;;;;;;;8.52;6.45;;;20.40;99.90;;;20.33;95.52;101554.13;4170249;28;20032;-71
2021/07/21 00:52:33;;;;;;;8.60;6.93;;;20.40;99.90;;;20.38;95.47;101556.19;4169151;28;20057;-71
2021/07/21 00:54:35;;;;;;;11.77;7.35;;;20.40;99.90;;;20.34;95.28;101550.38;4170136;28;20515;-71
2021/07/21 00:56:36;;;;;;;9.75;6.45;;;20.40;99.90;;;20.38;95.30;101554.34;4169392;28;20057;-71
2021/07/21 00:58:37;;;;;;;12.95;7.47;;;20.40;99.90;;;20.45;94.97;101553.53;4170421;28;20021;-71
2021/07/21 01:00:38;;;;;;;7.55;6.63;;;20.40;99.90;;;20.44;94.35;101555.38;4170343;28;20032;-71
2021/07/21 01:02:40;;;;;;;10.30;6.82;;;20.40;99.90;;;20.38;95.25;101561.53;4170196;28;20028;-71
2021/07/21 01:04:41;;;;;;;8.02;7.00;;;20.40;99.90;;;20.39;94.91;101561.34;4169093;28;20401;-71
2021/07/21 01:06:42;;;;;;;9.50;6.70;;;20.30;99.90;;;20.35;94.57;101557.41;4168710;28;20121;-71
2021/07/21 01:08:43;;;;;;;9.23;6.78;;;20.30;99.90;;;20.30;94.87;101561.72;4169002;28;20033;-71
2021/07/21 01:10:55;;;;;;;10.70;6.93;;;20.30;99.90;;;20.25;95.07;101553.44;4168897;28;20036;-71
2021/07/21 01:13:06;;;;;;;9.68;7.20;;;20.30;99.90;;;20.29;94.78;101560.06;4170139;28;20514;-71
2021/07/21 01:15:18;;;;;;;9.65;7.00;;;20.30;99.90;;;20.27;94.46;101564.81;4168863;28;20464;-71
2021/07/21 01:17:26;;;;;;;9.00;6.45;;;20.20;99.90;;;20.19;95.42;101567.63;4185068;28;20025;-71
2021/07/21 01:20:07;;;;;;;10.85;6.68;;;20.20;99.90;;;20.11;94.96;101562.41;4168916;28;20033;-71
2021/07/21 01:22:17;;;;;;;7.45;6.70;;;20.10;99.90;;;19.94;95.48;101553.06;4169624;28;20038;-71
2021/07/21 01:24:33;;;;;;;8.80;7.15;;;20.10;99.90;;;19.94;95.85;101563.78;4169976;28;20039;-72
2021/07/21 01:27:08;;;;;;;9.57;7.68;;;20.00;99.90;;;19.91;96.27;101559.63;4168079;28;20116;-71
2021/07/21 01:29:09;;;;;;;7.28;6.13;;;20.00;99.90;;;19.84;96.74;101564.94;4179150;28;20032;-71
2021/07/21 01:31:22;;;;;;;12.35;7.05;;;19.90;99.90;;;19.88;96.70;101562.72;4168666;28;20036;-71
2021/07/21 01:33:24;;;;;;;9.05;7.03;;;19.90;99.90;;;19.89;96.34;101557.13;4169613;28;20392;-71
2021/07/21 01:35:41;;;;;;;10.82;7.75;;;19.90;99.90;;;19.92;96.20;101558.63;4168386;28;20029;-71
2021/07/21 01:37:51;;;;;;;8.43;6.72;;;19.90;99.90;;;19.86;96.67;101556.72;4168622;28;20017;-71
2021/07/21 01:40:02;;;;;;;10.35;6.65;;;19.80;99.90;;;19.80;96.86;101558.31;4169559;28;20029;-71
2021/07/21 01:42:08;;;;;;;10.68;6.90;;;19.80;99.90;;;19.80;97.26;101561.00;4168522;28;20044;-71
2021/07/21 01:44:41;;;;;;;7.10;6.32;;;19.80;99.90;;;19.86;96.45;101562.88;4168508;28;20034;-72
2021/07/21 01:46:44;;;;;;;11.18;6.63;;;19.80;99.90;;;19.88;96.13;101560.03;4167659;28;20041;-71
2021/07/21 01:48:46;;;;;;;10.80;6.83;;;19.80;99.90;;;19.81;96.50;101564.50;4152278;28;20033;-71
2021/07/21 01:50:50;;;;;;;8.15;6.82;;;19.80;99.90;;;19.79;96.67;101561.22;4168310;28;20276;-71
2021/07/21 01:52:51;;;;;;;;;;;19.70;99.90;;;19.69;97.01;101564.22;4185090;28;20029;-71
2021/07/21 01:55:00;;;;;;;10.80;7.38;;;19.80;99.90;;;19.79;96.31;101567.41;4172848;28;20422;-71
2021/07/21 01:57:02;;;;;;;11.77;7.53;;;19.80;99.90;;;19.71;96.76;101577.44;4168431;28;20033;-72
2021/07/21 01:59:06;;;;;;;8.45;7.03;;;19.80;99.90;;;19.70;96.40;101573.09;4168161;28;20033;-71
2021/07/21 02:01:12;;;;;;;9.45;7.53;;;19.70;99.90;;;19.64;96.53;101566.66;4168199;28;20056;-72
2021/07/21 02:03:13;;;;;;;11.32;7.53;;;19.70;99.90;;;19.62;97.18;101571.38;4152136;28;20041;-71
2021/07/21 02:05:16;;;;;;;11.20;7.50;;;19.60;99.90;;;19.58;97.22;101578.16;4168247;28;20034;-71
2021/07/21 02:07:18;;;;;;;8.60;6.65;;;19.60;99.90;;;19.47;97.41;101565.31;4167850;28;20102;-71
2021/07/21 02:09:19;;;;;;;11.25;7.25;;;19.60;99.90;;;19.51;97.28;101566.56;4168266;28;20030;-71
2021/07/21 02:11:21;;;;;;;10.40;7.93;;;19.50;99.90;;;19.52;97.59;101573.56;4168190;28;20417;-71
2021/07/21 02:13:26;;;;;;;10.43;7.30;;;19.50;99.90;;;19.46;97.89;101566.31;4163088;28;20033;-71
2021/07/21 02:15:28;;;;;;;13.23;7.53;;;19.50;99.90;;;19.45;97.87;101559.31;4168017;28;20029;-71
2021/07/21 02:17:29;;;;;;;9.38;6.75;;;19.50;99.90;;;19.46;98.30;101568.16;4168034;28;20373;-71
2021/07/21 02:19:31;;;;;;;10.63;7.10;;;19.50;99.90;;;19.37;98.00;101548.72;4168019;28;20067;-71
2021/07/21 02:21:36;;;;;;;10.98;7.13;;;19.50;99.90;;;19.46;97.63;101560.97;4167636;28;20063;-71
2021/07/21 02:23:38;;;;;;;9.18;7.05;;;19.50;99.90;;;19.63;96.48;101565.00;4184057;28;20032;-71
2021/07/21 02:25:40;;;;;;;9.52;6.97;;;19.50;99.90;;;19.54;96.52;101562.66;4196876;28;20075;-71
2021/07/21 02:27:41;;;;;;;10.82;6.82;;;19.50;99.90;;;19.52;96.91;101570.06;4151529;28;20026;-71
2021/07/21 02:29:43;;;;;;;8.18;6.65;;;19.50;99.90;;;19.45;97.30;101567.34;4151380;28;20108;-71
2021/07/21 02:32:11;;;;;;;12.63;7.68;;;19.50;99.90;;;19.48;96.87;101571.47;4183909;28;20025;-71
2021/07/21 02:34:12;;;;;;;12.43;7.20;;;19.50;99.90;;;19.41;97.66;101568.75;4152471;28;20089;-71
2021/07/21 02:36:14;;;;;;;10.27;7.82;;;19.40;99.90;;;19.30;97.61;101563.88;4152105;28;20022;-71
2021/07/21 02:38:15;;;;;;;7.65;6.82;;;19.40;99.90;;;19.32;97.73;101559.19;4151372;28;20091;-72
2021/07/21 02:40:17;;;;;;;10.02;7.20;;;19.40;99.90;;;19.41;96.82;101566.09;4151310;28;20033;-71
2021/07/21 02:42:20;;;;;;;11.70;7.47;;;19.30;99.90;;;19.37;96.98;101551.41;4167549;28;20129;-71
2021/07/21 02:44:21;;;;;;;12.73;7.50;;;19.30;99.90;;;19.31;97.12;101553.00;4167476;28;20029;-71
2021/07/21 02:46:22;;;;;;;9.98;7.03;;;19.40;99.90;;;19.30;97.41;101545.16;4152199;28;20040;-71
2021/07/21 02:48:23;;;;;;;10.10;7.88;;;19.30;99.90;;;19.26;97.66;101549.25;4183824;28;20029;-71
2021/07/21 02:50:24;;;;;;;8.60;6.65;;;19.30;99.90;;;19.26;97.50;101554.59;4151085;28;20029;-71
2021/07/21 02:53:11;;;;;;;10.85;6.80;;;19.30;99.90;;;19.22;97.37;101545.31;4183955;28;20083;-71
2021/07/21 02:55:21;;;;;;;9.52;6.47;;;19.30;99.90;;;19.18;97.45;101552.03;4173941;28;20047;-71
2021/07/21 02:57:32;;;;;;;10.43;7.20;;;19.20;99.90;;;19.25;97.04;101558.28;4178233;28;20025;-71
2021/07/21 02:59:46;;;;;;;11.35;8.15;;;19.20;99.90;;;19.24;96.60;101551.28;4168658;28;20100;-72
2021/07/21 03:01:49;;;;;;;11.30;8.05;;;19.20;99.90;;;19.13;97.36;101551.81;4167523;28;20026;-71
2021/07/21 03:03:51;;;;;;;6.83;6.13;;;19.20;99.90;;;19.16;97.28;101554.94;4167489;28;20400;-71
2021/07/21 03:06:02;;;;;;;9.10;7.13;;;19.10;99.90;;;19.17;96.83;101553.09;4167043;28;20118;-71
2021/07/21 03:08:05;;;;;;;12.23;7.18;;;19.20;99.90;;;19.16;97.00;101544.22;4151585;28;20022;-71
2021/07/21 03:10:09;;;;;;;12.13;7.70;;;19.20;99.90;;;19.08;97.38;101554.25;4167278;28;20485;-71
2021/07/21 03:12:14;;;;;;;9.45;7.18;;;19.10;99.90;;;19.09;97.98;101563.91;4166812;28;20041;-71
2021/07/21 03:14:16;;;;;;;10.75;6.78;;;19.10;99.90;;;19.01;98.39;101548.81;4167270;28;20034;-71
2021/07/21 03:16:24;;;;;;;9.38;7.50;;;19.10;99.90;;;18.99;98.56;101555.38;4167277;28;20033;-72
2021/07/21 03:18:30;;;;;;;9.00;7.28;;;19.00;99.90;;;19.02;98.38;101557.69;4167183;28;20025;-72
2021/07/21 03:20:32;;;;;;;10.13;7.63;;;19.00;99.90;;;19.04;98.24;101563.66;4167620;28;20397;-71
2021/07/21 03:22:37;;;;;;;11.57;7.80;;;19.00;99.90;;;19.00;98.52;101557.03;4167357;28;20025;-71
2021/07/21 03:24:41;;;;;;;9.63;7.50;;;19.00;99.90;;;19.02;97.91;101553.16;4183634;28;20055;-71
2021/07/21 03:26:42;;;;;;;9.88;7.53;;;19.00;99.90;;;18.94;98.57;101550.59;4167388;28;20087;-72
2021/07/21 03:28:45;;;;;;;12.23;7.40;;;19.00;99.90;;;19.04;97.79;101560.97;4167126;28;20084;-71
2021/07/21 03:30:46;;;;;;;9.15;7.25;;;19.00;99.90;;;18.94;98.26;101561.28;4183734;28;20028;-71
2021/07/21 03:32:49;;;;;;;8.55;6.95;;;19.00;99.90;;;18.84;98.81;101563.47;4167237;28;20061;-71
2021/07/21 03:34:50;;;;;;;10.20;6.88;;;18.90;99.90;;;18.89;98.49;101552.19;4167079;28;20448;-71
2021/07/21 03:36:54;;;;;;;10.73;8.07;;;18.90;99.90;;;18.85;98.33;101558.91;4167036;28;20033;-71
2021/07/21 03:38:57;;;;;;;12.23;8.00;;;18.90;99.90;;;18.82;98.33;101552.13;4167189;28;20429;-71
2021/07/21 03:40:59;;;;;;;10.88;7.72;;;18.80;99.90;;;18.77;98.71;101566.06;4167157;28;20032;-71
2021/07/21 03:43:01;;;;;;;10.35;7.38;;;18.90;99.90;;;18.87;97.63;101564.94;4168040;28;20056;-71
2021/07/21 03:45:08;;;;;;;10.80;8.27;;;18.90;99.90;;;18.82;98.15;101556.66;4167163;28;20034;-71
2021/07/21 03:47:09;;;;;;;9.85;6.63;;;18.80;99.90;;;18.78;99.00;101567.72;4168236;28;20033;-72
2021/07/21 03:49:10;;;;;;;11.85;7.43;;;18.80;99.90;;;18.77;99.07;101571.41;4168140;28;20035;-72
2021/07/21 03:51:13;;;;;;;9.25;7.55;;;18.80;99.90;;;18.85;98.46;101562.44;4186411;28;20029;-72
2021/07/21 03:53:14;;;;;;;12.13;7.70;;;18.80;99.90;;;19.01;97.25;101566.72;4170300;28;20603;-72
2021/07/21 03:55:18;;;;;;;8.07;7.13;;;18.90;99.90;;;19.02;97.10;101565.69;4177758;28;20488;-72
2021/07/21 03:57:21;;;;;;;;;;;18.90;99.90;;;18.86;97.12;101561.41;4170633;28;20032;-71
2021/07/21 03:59:23;;;;;;;11.23;7.57;;;18.90;99.90;;;18.82;98.33;101556.66;4184818;28;19912;-71
2021/07/21 04:01:26;;;;;;;15.80;8.63;;;18.90;99.90;;;18.87;98.20;101570.28;4170069;28;20053;-71
2021/07/21 04:03:28;;;;;;;13.15;8.35;;;18.90;99.90;;;18.87;97.94;101565.75;4170021;28;20095;-71
2021/07/21 04:05:32;;;;;;;9.23;7.28;;;18.80;99.90;;;18.82;98.43;101570.81;4169721;28;20029;-71
2021/07/21 04:07:37;;;;;;;11.02;7.50;;;18.80;99.90;;;18.76;98.54;101569.75;4170055;28;20048;-71
2021/07/21 04:09:38;;;;;;;13.13;7.80;;;18.80;99.90;;;18.79;98.48;101573.88;4186411;28;20067;-71
2021/07/21 04:11:40;;;;;;;10.25;7.75;;;18.80;99.90;;;18.79;98.41;101585.41;4169974;28;20065;-71
2021/07/21 04:13:42;;;;;;;10.43;7.90;;;18.80;99.90;;;18.76;98.76;101574.25;4186202;28;20037;-71
2021/07/21 04:15:45;;;;;;;9.23;7.57;;;18.80;99.90;;;18.79;97.95;101580.06;4169843;28;20028;-71
2021/07/21 04:17:46;;;;;;;12.33;7.87;;;18.80;99.90;;;18.70;97.53;101586.53;4169831;28;20025;-71
2021/07/21 04:19:48;;;;;;;9.05;7.47;;;18.70;99.90;;;18.56;97.97;101590.06;4169852;28;20295;-71
2021/07/21 04:21:52;;;;;;;13.70;8.15;;;18.70;99.90;;;18.56;98.17;101584.72;4186009;28;20036;-71
2021/07/21 04:23:54;;;;;;;8.40;6.88;;;18.60;99.90;;;18.67;98.42;101589.59;4169671;28;20033;-71
2021/07/21 04:25:55;;;;;;;10.65;7.80;;;18.60;99.90;;;18.65;98.45;101596.97;4169840;28;20435;-71
2021/07/21 04:27:58;;;;;;;11.00;7.07;;;18.70;99.90;;;18.70;97.88;101591.88;4169654;28;20037;-71
2021/07/21 04:29:59;;;;;;;14.05;7.68;;;18.70;99.90;;;18.68;97.70;101587.75;4170755;28;20503;-71
2021/07/21 04:32:03;;;;;;;8.55;7.38;;;18.70;99.90;;;18.67;97.46;101588.75;4169774;28;20040;-71
2021/07/21 04:34:06;;;;;;;9.88;7.22;;;18.60;99.90;;;18.60;97.83;101604.72;4186081;28;20037;-71
2021/07/21 04:36:07;;;;;;;10.15;6.78;;;18.60;99.90;;;18.62;98.19;101608.03;4169210;28;20064;-71
2021/07/21 04:38:09;;;;;;;9.57;6.82;;;18.60;99.90;;;18.62;97.79;101605.38;4185996;28;20032;-71
2021/07/21 04:40:12;;;;;;;12.55;7.45;;;18.60;99.90;;;18.65;97.10;101607.66;4169602;28;20075;-71
2021/07/21 04:42:13;;;;;;;11.97;8.30;;;18.60;99.90;;;18.61;97.59;101597.50;4152980;28;20425;-71
2021/07/21 04:44:14;;;;;;;9.18;7.30;;;18.60;99.90;;;18.57;97.77;101610.44;4152994;28;20283;-71
2021/07/21 04:46:18;;;;;;;10.20;8.80;;;18.60;99.90;;;18.48;98.52;101606.19;4170612;28;20037;-71
2021/07/21 04:48:20;;;;;;;;;;;18.60;99.90;;;18.56;98.42;101610.63;4169929;28;20032;-71
2021/07/21 04:50:23;;;;;;;12.65;7.43;;;18.60;99.90;;;18.55;98.01;101608.94;4176201;28;19909;-71
2021/07/21 04:52:25;;;;;;;13.10;7.63;;;18.60;99.90;;;18.53;98.29;101617.19;4170553;28;20068;-71
2021/07/21 04:54:28;;;;;;;9.30;7.50;;;18.60;99.90;;;18.53;98.33;101617.19;4169087;28;20037;-71
2021/07/21 04:56:29;;;;;;;10.20;7.80;;;18.60;99.90;;;18.57;97.59;101618.47;4169422;28;20025;-71
2021/07/21 04:58:30;;;;;;;10.93;7.78;;;18.60;99.90;;;18.53;98.11;101625.19;4169339;28;20021;-71
2021/07/21 05:00:31;;;;;;;9.77;7.97;;;18.60;99.90;;;18.58;97.94;101620.09;4184426;28;20425;-71
2021/07/21 05:02:32;;;;;;;9.40;6.85;;;18.60;99.90;;;18.70;96.64;101629.31;4170269;28;20044;-71
2021/07/21 05:04:35;;;;;;;10.70;7.35;;;18.70;99.90;;;18.65;97.10;101637.06;4168863;28;20119;-71
2021/07/21 05:06:36;;;;;;;10.20;7.80;;;18.70;99.90;;;18.57;97.49;101623.81;4168912;28;20040;-71
2021/07/21 05:08:37;;;;;;;10.32;7.68;;;18.80;99.90;;;18.68;97.13;101638.53;4169224;28;20033;-71
2021/07/21 05:10:40;;;;;;;11.82;7.47;;;18.70;99.90;;;18.68;97.12;101636.69;4170098;28;20033;-71
2021/07/21 05:12:44;;;;;;;10.35;7.55;;;18.80;99.90;;;18.64;97.61;101630.03;4170317;28;20028;-72
2021/07/21 05:14:45;;;;;;;11.48;7.35;;;18.80;99.90;;;18.62;97.71;101629.41;4168943;28;20072;-71
2021/07/21 05:16:46;;;;;;;9.60;7.90;;;18.70;99.90;;;18.65;97.71;101645.06;4170091;28;20030;-72
2021/07/21 05:18:47;;;;;;;11.93;8.55;;;18.80;99.90;;;18.62;97.69;101642.78;4169982;28;20093;-71
2021/07/21 05:20:48;;;;;;;8.63;7.32;;;18.80;99.90;;;18.67;97.53;101640.38;4168609;28;20029;-71
2021/07/21 05:22:49;;;;;;;10.50;8.57;;;18.80;99.90;;;18.65;97.79;101645.06;4168909;28;20156;-71
2021/07/21 05:24:50;;;;;;;9.52;7.32;;;18.90;99.90;;;18.70;97.61;101642.66;4168762;28;20088;-72
2021/07/21 05:26:51;;;;;;;9.68;7.57;;;18.90;99.90;;;18.81;97.71;101654.72;4168655;28;20033;-72
2021/07/21 05:28:52;;;;;;;12.65;7.75;;;18.90;99.90;;;18.90;96.67;101656.28;4158223;28;20463;-71
2021/07/21 05:30:53;;;;;;;10.15;7.38;;;19.00;99.90;;;18.83;97.37;101652.69;4168588;28;20030;-71
2021/07/21 05:32:54;;;;;;;10.43;7.85;;;19.00;99.90;;;18.90;96.67;101661.63;4168558;28;20029;-72
2021/07/21 05:34:55;;;;;;;8.57;7.63;;;19.00;99.90;;;18.86;97.30;101665.69;4169562;28;20068;-72
2021/07/21 05:36:56;;;;;;;11.15;7.10;;;19.10;99.90;;;18.88;97.34;101657.47;4168310;28;20032;-72
2021/07/21 05:38:57;;;;;;;10.02;6.80;;;19.10;99.90;;;18.92;97.09;101656.91;4168514;28;20025;-72
2021/07/21 05:40:58;;;;;;;10.27;7.07;;;19.10;99.90;;;18.90;97.52;101669.66;4168528;28;20069;-71
2021/07/21 05:42:59;;;;;;;10.50;8.35;;;19.10;99.90;;;18.95;97.61;101666.41;4166015;28;20051;-72
2021/07/21 05:45:00;;;;;;;10.10;7.70;;;19.10;99.90;;;18.96;97.70;101660.88;4168587;28;20392;-72
2021/07/21 05:47:01;;;;;;;13.73;7.80;;;19.20;99.90;;;19.09;96.87;101660.19;4160337;28;20029;-72
2021/07/21 05:49:02;;;;;;;11.35;7.47;;;19.30;99.90;;;19.24;96.14;101668.97;4168452;28;20033;-74
2021/07/21 05:51:03;;;;;;;10.35;7.78;;;19.30;99.90;;;19.22;95.72;101671.03;4168061;28;20040;-75
2021/07/21 05:53:04;;;;;;;9.68;7.00;;;19.40;99.90;;;19.28;96.26;101683.66;4169548;28;20032;-75
2021/07/21 05:55:06;;;;;;;11.05;7.85;;;19.50;99.90;;;19.37;95.25;101677.16;4169445;28;20040;-75
2021/07/21 05:57:07;;;;;;;8.98;6.82;;;19.50;99.90;;;19.41;94.45;101678.47;4168319;28;20029;-75
2021/07/21 05:59:08;;;;;;;11.07;7.22;;;19.60;99.90;;;19.51;93.60;101681.63;4169473;28;20392;-75
2021/07/21 06:01:09;;;;;;;9.93;6.60;;;19.70;99.90;;;19.56;93.85;101679.22;4168671;28;20028;-75
2021/07/21 06:03:10;;;;;;;11.25;7.50;;;19.70;99.90;;;19.58;94.05;101682.53;4184819;28;20159;-75
2021/07/21 06:05:11;;;;;;;9.30;6.88;;;19.80;99.90;;;19.60;94.25;101679.66;4167969;28;20022;-75
2021/07/21 06:07:12;;;;;;;9.75;7.60;;;19.90;99.90;;;19.58;93.67;101677.19;4184613;28;20037;-75
2021/07/21 06:09:13;;;;;;;8.90;7.70;;;19.90;99.90;;;19.69;93.35;101684.69;4169366;28;20036;-75
2021/07/21 06:11:16;;;;;;;13.00;8.52;;;20.00;99.90;;;19.84;92.68;101692.63;4168184;28;20033;-75
2021/07/21 06:13:17;;;;;;;10.40;8.07;;;20.00;99.90;;;19.98;90.40;101688.25;4169071;28;20362;-75
2021/07/21 06:15:18;;;;;;;12.93;7.78;;;20.10;99.90;;;20.04;89.95;101700.84;4151537;28;20130;-75
2021/07/21 06:17:19;;;;;;;12.77;8.07;;;20.20;99.90;;;20.17;87.97;101703.59;4184492;28;20527;-75
2021/07/21 06:19:20;;;;;;;14.88;8.70;;;20.30;99.90;;;20.19;87.47;101701.59;4168109;28;20144;-75
2021/07/21 06:21:21;;;;;;;12.02;7.30;;;20.40;99.90;;;20.21;87.76;101704.88;4161552;28;20088;-75
2021/07/21 06:23:22;;;;;;;17.98;7.13;;;20.40;99.90;;;20.26;87.01;101691.75;4151654;28;20030;-75
2021/07/21 06:25:24;;;;;;;10.95;7.15;;;20.50;99.90;;;20.29;87.71;101705.59;4168939;28;20041;-75
2021/07/21 06:27:25;;;;;;;12.30;7.68;;;20.60;99.90;;;20.29;86.44;101700.22;4169154;28;20033;-75
2021/07/21 06:29:26;;;;;;;10.60;7.55;;;20.60;99.90;;;20.46;86.75;101708.78;4167851;28;20207;-75
2021/07/21 06:31:27;;;;;;;10.20;7.03;;;20.70;99.90;;;20.47;86.48;101699.72;4167704;28;20025;-75
2021/07/21 06:33:28;;;;;;;9.88;6.97;;;20.70;99.90;;;20.43;87.21;101703.81;4168863;28;20040;-75
2021/07/21 06:35:29;;;;;;;12.38;7.38;;;20.70;99.90;;;20.56;86.71;101709.25;4168830;28;20501;-75
2021/07/21 06:37:30;;;;;;;10.32;6.88;;;20.80;99.90;;;20.65;86.24;101708.06;4167700;28;20432;-75
2021/07/21 06:39:31;;;;;;;13.40;7.68;;;20.90;99.90;;;20.64;86.68;101706.41;4167877;28;20095;-75
2021/07/21 06:41:32;;;;;;;12.10;7.82;;;20.90;99.90;;;20.73;84.98;101702.53;4168583;28;20037;-75
2021/07/21 06:43:33;;;;;;;11.55;8.00;;;21.00;99.90;;;20.73;85.23;101705.22;4151125;28;20022;-75
2021/07/21 06:45:35;;;;;;;14.80;7.82;;;21.10;99.90;;;20.89;84.17;101704.88;4159145;28;20484;-75
2021/07/21 06:47:36;;;;;;;12.15;8.25;;;21.10;99.90;;;20.89;83.65;101707.56;4168712;28;20513;-75
2021/07/21 06:49:37;;;;;;;10.68;7.05;;;21.20;99.90;;;20.86;84.80;101707.97;4168636;28;20040;-75
2021/07/21 06:51:38;;;;;;;12.60;8.32;;;21.20;99.90;;;20.91;84.30;101697.47;4168543;28;20060;-75
2021/07/21 06:53:38;;;;;;;8.18;6.78;;;21.30;99.90;;;20.91;85.25;101708.19;4167407;28;20026;-75
2021/07/21 06:55:39;;;;;;;11.75;8.68;;;21.30;99.90;;;20.96;82.84;101711.13;4183943;28;20036;-75
2021/07/21 06:57:40;;;;;;;13.27;8.23;;;21.30;99.90;;;21.08;84.50;101713.22;4183594;28;20468;-75
2021/07/21 06:59:41;;;;;;;12.50;7.53;;;21.40;99.90;;;21.03;85.20;101710.31;4167492;28;20021;-75
2021/07/21 07:01:42;;;;;;;12.98;8.50;;;21.40;99.90;;;21.11;84.94;101718.22;4158268;28;20029;-75
2021/07/21 07:03:43;;;;;;;15.88;8.10;;;21.40;99.90;;;21.15;83.71;101719.44;4167431;28;20032;-75
2021/07/21 07:05:44;;;;;;;13.48;8.50;;;21.50;99.90;;;21.20;84.55;101715.16;4164370;28;20026;-75
2021/07/21 07:07:45;;;;;;;15.45;9.82;;;21.50;99.90;;;21.22;82.22;101713.09;4167450;28;20028;-75
2021/07/21 07:09:46;;;;;;;12.57;8.40;;;21.60;99.90;;;21.22;82.95;101707.72;4167109;28;20014;-75
2021/07/21 07:11:46;;;;;;;10.05;7.25;;;21.70;99.90;;;21.29;83.69;101715.78;4167257;28;20026;-75
2021/07/21 07:13:47;;;;;;;12.02;8.77;;;21.70;99.90;;;21.36;82.51;101722.81;4164323;28;20040;-75
2021/07/21 07:15:50;;;;;;;13.25;8.05;;;21.70;99.90;;;21.39;82.33;101718.91;4150833;28;20018;-75
2021/07/21 07:17:51;;;;;;;19.98;8.85;;;21.70;99.90;;;21.39;80.69;101705.47;4174035;28;20024;-75
2021/07/21 07:19:53;;;;;;;12.77;9.27;;;21.80;99.90;;;21.40;78.70;101713.34;4168350;28;20085;-75
2021/07/21 07:21:53;;;;;;;19.60;9.27;;;21.90;99.90;;;21.45;79.56;101726.97;4166807;28;20033;-75
2021/07/21 07:23:57;;;;;;;13.75;8.43;;;21.90;99.90;;;21.47;78.10;101716.84;4167873;28;20444;-75
2021/07/21 07:25:58;;;;;;;12.30;8.70;;;22.00;99.90;;;21.55;79.04;101720.38;4154670;28;20038;-75
2021/07/21 07:27:58;;;;;;;17.70;9.88;;;22.00;99.90;;;21.48;76.78;101723.03;4170596;28;20606;-74
2021/07/21 07:30:00;;;;;;;15.45;9.10;;;22.10;99.90;;;21.64;76.92;101717.31;4170409;28;20117;-75
2021/07/21 07:32:01;;;;;;;27.02;25.27;;;22.10;99.90;;;21.62;76.95;101716.69;4141387;28;20037;-75
2021/07/21 07:34:02;;;;;;;29.80;26.77;;;22.20;99.90;;;21.75;76.89;101721.22;4170549;28;20038;-75
2021/07/21 07:36:04;;;;;;;16.67;9.05;;;22.20;99.90;;;21.75;75.70;101718.53;4153720;28;20145;-75
2021/07/21 07:38:11;;;;;;;13.90;8.38;;;22.30;99.90;;;21.84;76.68;101723.50;4167019;28;20087;-74
2021/07/21 07:40:12;;;;;;;14.00;8.27;;;22.40;99.90;;;21.97;76.89;101720.88;4170517;28;20032;-75
2021/07/21 07:42:13;;;;;;;16.45;8.98;;;22.40;99.90;;;22.04;77.10;101721.69;4171557;28;20054;-75
2021/07/21 07:44:14;;;;;;;18.75;8.85;;;22.50;99.90;;;22.13;77.46;101713.44;4170372;28;20053;-75
2021/07/21 07:46:15;;;;;;;18.05;10.13;;;22.60;99.90;;;22.09;75.90;101713.00;4171346;28;20056;-74
2021/07/21 07:48:16;;;;;;;15.00;9.90;;;22.60;99.90;;;22.13;76.02;101729.53;4171612;28;20025;-75
2021/07/21 07:50:16;;;;;;;15.38;8.68;;;22.70;99.90;;;22.19;75.89;101718.78;4171193;28;20036;-75
2021/07/21 07:52:17;;;;;;;13.52;9.30;;;22.70;99.90;;;22.30;76.16;101717.31;4171376;28;20029;-75
2021/07/21 07:54:20;;;;;;;16.73;9.35;;;22.80;99.90;;;22.40;77.82;101721.22;4169983;28;20079;-75
2021/07/21 07:56:21;;;;;;;15.32;9.88;;;22.90;99.90;;;22.45;74.32;101723.28;4186653;28;20025;-75
2021/07/21 07:58:22;;;;;;;14.25;9.93;;;23.00;99.90;;;22.54;74.81;101712.13;4171412;28;20033;-75
2021/07/21 08:00:23;;;;;;;13.32;9.85;;;23.10;99.90;;;22.71;75.93;101717.88;4153804;28;20022;-75
2021/07/21 08:02:24;;;;;;;13.30;9.95;;;23.20;99.90;;;22.69;74.35;101713.75;4171189;28;20404;-75
2021/07/21 08:04:25;;;;;;;16.15;10.10;;;23.20;99.90;;;22.79;73.69;101720.31;4153529;28;20026;-75
2021/07/21 08:06:26;;;;;;;15.25;9.90;;;23.30;99.90;;;22.91;72.68;101710.53;4171118;28;20396;-75
2021/07/21 08:08:27;;;;;;;20.45;11.32;;;23.40;99.90;;;23.04;73.67;101713.19;4170166;28;20115;-75
2021/07/21 08:10:29;;;;;;;18.35;11.10;;;23.50;99.90;;;23.11;71.15;101710.47;4169895;28;20030;-75
2021/07/21 08:12:30;;;;;;;17.73;10.93;;;23.60;99.90;;;23.13;71.65;101711.06;4170178;28;20036;-74
2021/07/21 08:14:31;;;;;;;15.85;10.75;;;23.70;99.90;;;23.31;71.07;101707.66;4170107;28;20555;-75
2021/07/21 08:16:32;;;;;;;15.77;10.43;;;23.80;99.90;;;23.33;69.32;101705.56;4153578;28;20038;-75
2021/07/21 08:18:33;;;;;;;16.58;11.38;;;23.90;99.90;;;23.52;70.30;101704.66;4169849;28;20048;-75
2021/07/21 08:20:34;;;;;;;18.65;11.85;;;24.00;99.90;;;23.69;70.85;101706.59;4169428;28;20022;-75
2021/07/21 08:22:40;;;;;;;18.65;11.02;;;24.20;99.90;;;23.81;69.17;101708.59;4171244;28;20024;-75
2021/07/21 08:24:41;;;;;;;20.05;11.70;;;24.30;99.90;;;23.81;70.93;101698.63;4169741;28;20030;-75
2021/07/21 08:26:43;;;;;;;17.40;12.48;;;24.40;99.90;;;23.97;69.42;101703.47;4169701;28;20092;-75
2021/07/21 08:28:44;;;;;;;18.45;12.27;;;24.40;99.90;;;24.01;70.19;101696.59;4170026;28;20029;-75
2021/07/21 08:30:45;;;;;;;20.65;12.27;;;24.60;99.90;;;24.17;68.72;101706.84;4170925;28;20040;-75
2021/07/21 08:32:49;;;;;;;17.42;12.15;;;24.70;99.90;;;24.21;68.68;101702.66;4169669;28;20037;-75